Team logos
Guidelines for entries Team Leaderboard Add or Update a Person FAQ
May 2021 - Cross the Red Line
The 200th CTC challenge was chosen by Red Line Rowers


Row 200 seconds (3 mins 20 secs)
There are no stroke rate restrictions.
It must be rowed from a standing start.


Record your distance for 3'20".

Note: the pace shown on here is based on 3minutes (not 3'20").


The June challenge will be chosen by GarageAthlete.
See C2 forum thread for details.

Most Recent EntriesAdd/Update an Entry
DateNameCatTeamResult
2021-09-02FREELANCE MN AD SPANO GIOVANNAFHWTROWING CLUB MANTOVA 717
2021-06-01John Steventon HWT FMMHWTFitness Matters 1001
2021-06-01Frank NoorlanderMHWTForum Flyers 962
2021-06-01macrothskiMHWTSki Erg 961
2021-06-01Tobias StöhrMHWTGermania 1068
Bold = new time; italic = updated time
 
Current Leaderboard
Names in blue italics have added or updated their times within the past 24 hours.
#NameCatTeamResultPacePower
1Isaiah HarrisonMSub 7 I 1202   1:14.9  833.8 
2Olli ZeidlerMMAD I 1191   1:15.6  811.1 
3Jason MarshallMGARAGEATHLETE I 1176   1:16.5  780.8 
4Jack TrimbleMMAD I 1144   1:18.7  718.8 
5Big PhilMMAD I 1139   1:19.0  709.4 
6Tim GrohmannMGermania I 1126   1:19.9  685.4 
7Chris GlasgowMGARAGEATHLETE I 1124   1:20.1  681.8 
8Chris ScottMMAD II 1122   1:20.2  678.1 
9Adam Jones FMMFitness Matters I 1119   1:20.4  672.7 
10Roy JonesMMAD II 1116   1:20.6  667.3 
11NZ - Andy TomlinsonMTe Waka Aotearoa I 1111   1:21.0  658.4 
12Freddie H hwtMMAD II 1110   1:21.1  656.6 
13Joshua Flood FMMFitness Matters I 1110   1:21.1  656.6 
14Andrew MorleyMSub 7 I 1106   1:21.4  649.5 
15Ian Gallagher TDRMThe Delivery Room I 1105   1:21.4  647.8 
16Keith ThompsonMTeam Oarsome I 1104   1:21.5  646.0 
17Patrick HallMMAD III 1103   1:21.6  644.3 
18Ben JagoMSub 7 I 1100   1:21.8  639.0 
19Nathaniel Wright TDRMThe Delivery Room I 1099   1:21.9  637.3 
20Lewin2MSub 7 II 1095   1:22.2  630.4 
21Loic ShalbetterMFitness Matters I 1092   1:22.4  625.2 
22Dylan DragswiekMSub 7 II 1089   1:22.6  620.0 
23Terje Kydland (2)MSub 7 II 1087   1:22.8  616.6 
24macrothMForum Flyers I 1081   1:23.3  606.5 
25Ian WildeMSub 7 III 1081   1:23.3  606.5 
26NZ - FifitaMTe Waka Aotearoa I 1075   1:23.7  596.4 
27Rob PhillipsMSub 7 III 1071   1:24.0  589.8 
28Haig McNaughtonMIsenhurst Rowers I 1070   1:24.1  588.2 
29Justin FarinaMGARAGEATHLETE I 1068   1:24.3  584.9 
30Tobias StöhrMGermania I 1068   1:24.3  584.9 
31Tim MalemMAD I 1065   1:24.5  579.9 
32Justin Nickel FMmFitness Matters I 1057   1:25.1  567.0 
33Jase KMTe Waka Aotearoa I 1056   1:25.2  565.4 
34Bergur JensenmSub 7 I 1055   1:25.3  563.8 
35William.EsterhuizenMDiamonds I 1049   1:25.8  554.2 
36Philip HardyMRed Line Rowers I 1048   1:25.9  552.6 
37Gaunty TDRMThe Delivery Room I 1047   1:26.0  551.0 
38Martin StillMSub 7 III 1045   1:26.1  547.9 
39Jake LuceMSub 7 IV 1045   1:26.1  547.9 
40Craig MumbymTeam Oarsome I 1045   1:26.1  547.9 
41Jorn Gunnar KlevenMSub 7 IV 1044   1:26.2  546.3 
42Damien BLOUDEAUmGermania I 1042   1:26.4  543.2 
43ESPRIT Joe LustigMESPRIT I 1041   1:26.5  541.6 
44Harbour RatMGee Crew I 1041   1:26.5  541.6 
45Michael RichmondMFitness Matters II 1040   1:26.5  540.1 
46Bradley Perry frenchmMAD II 1039   1:26.6  538.5 
47IDR TDWMThe Delivery Room II 1038   1:26.7  536.9 
48NZ - Ross SmithMTe Waka Aotearoa II 1038   1:26.7  536.9 
49Richard SAMThe Delivery Room II 1037   1:26.8  535.4 
50BlanksbyFMMFitness Matters II 1035   1:27.0  532.3 
51Rich DixonMSub 7 IV 1031   1:27.3  526.2 
52Jeroen PasmanMSub 7 V 1030   1:27.4  524.6 
53Pete MarstonMMAD III 1029   1:27.5  523.1 
54Matt EadesMSub 7 V 1028   1:27.5  521.6 
55tony walpoleMFitness Matters II 1027   1:27.6  520.1 
56Tony MaddocksMThe Delivery Room II 1024   1:27.9  515.5 
57Sanjuan aip-perpignanMFIRT I 1023   1:28.0  514.0 
58Mike DohertyMIsenhurst Rowers I 1022   1:28.1  512.5 
59Matthew James FullerMThe Delivery Room III 1022   1:28.1  512.5 
60Paul NuttallMFitness Matters III 1021   1:28.1  511.0 
61Stuart KolbeMFitness Matters III 1021   1:28.1  511.0 
62Matthew Godwin FMMFitness Matters III 1020   1:28.2  509.5 
63ianskiMThe Delivery Room III 1019   1:28.3  508.0 
64Yannick HeratmGARAGEATHLETE I 1019   1:28.3  508.0 
65Alex Winser TDRmThe Delivery Room I 1018   1:28.4  506.5 
66Simon Amery FMmFitness Matters II 1018   1:28.4  506.5 
67Matthew LeonardMFree Spirits I 1016   1:28.6  503.5 
68Dingeman WiertzmErgo Ergo Sum I 1016   1:28.6  503.5 
69Alastair Peake FMmFitness Matters III 1015   1:28.7  502.0 
70Dave ChmilowskyjMTeam Oarsome I 1015   1:28.7  502.0 
71Alan DenbyMSub 7 V 1015   1:28.7  502.0 
72NZ - Leon MallardMTe Waka Aotearoa II 1014   1:28.8  500.6 
73rtbrouwerMForum Flyers I 1014   1:28.8  500.6 
74John WalshMSub 7 VI 1014   1:28.8  500.6 
75Kevin CarterMSub 7 VI 1013   1:28.8  499.1 
76Rowland Hills (RLR)MRed Line Rowers I 1012   1:28.9  497.6 
77Mike Pearce (MPx)MSub 7 VI 1011   1:29.0  496.1 
78Carl A RaisenMTeam Oarsome I 1010   1:29.1  494.7 
79Josh Skversky FMMFitness Matters IV 1010   1:29.1  494.7 
80Mike Channin (FS)MFree Spirits I 1009   1:29.2  493.2 
81Andy ParkesMGee Crew I 1008   1:29.3  491.7 
82HC (1)MFIRT I 1008   1:29.3  491.7 
83Kay BieriMC2TweetCrew I 1007   1:29.4  490.3 
84Sjfrost1001MThe Delivery Room III 1007   1:29.4  490.3 
85BertrandmFIRT I 1006   1:29.5  488.8 
86Richard WildermMAD III 1005   1:29.6  487.3 
87Peter ClowesMTeam Oarsome II 1004   1:29.6  485.9 
88Glynn PowellMSub 7 VII 1003   1:29.7  484.4 
89Len OsbornMDiamonds I 1002   1:29.8  483.0 
90B McAuleymFitness Matters IV 1002   1:29.8  483.0 
91Keith DarbymRed Line Rowers I 1001   1:29.9  481.6 
92Martin leachMTeam Oarsome II 1001   1:29.9  481.6 
93Morten HaugsengMFitness Matters IV 1001   1:29.9  481.6 
94ClaudiusmFree Spirits I 1001   1:29.9  481.6 
95Martin FFMForum Flyers I 1001   1:29.9  481.6 
96John Steventon HWT FMMFitness Matters IV 1001   1:29.9  481.6 
97Jon ColeMErgo Ergo Sum I 1000   1:30.0  480.1 
98NZ - Alex NicholsonmTe Waka Aotearoa I 1000   1:30.0  480.1 
99Tako LootsmaMFitness Matters V 1000   1:30.0  480.1 
100Simon HandleyMMAD III 1000   1:30.0  480.1 
101VgueretMFIRT I 995   1:30.5  472.9 
102NZ - Andy PitaMTe Waka Aotearoa II 993   1:30.6  470.1 
103Sam WillettsMRed Line Rowers I 992   1:30.7  468.7 
104StJohn FordM Once We Were Tribesports I 992   1:30.7  468.7 
105Bianca Piloseno MADFMAD I 991   1:30.8  467.3 
106Tim EvansMIsenhurst Rowers I 991   1:30.8  467.3 
107Joe LohmanMFree Spirits I 991   1:30.8  467.3 
108Steve OckerbyMForum Flyers II 991   1:30.8  467.3 
109Graham FrenchMIsenhurst Rowers II 988   1:31.1  463.0 
110Steve SmithMFree Spirits II 987   1:31.2  461.6 
111danfennellMFree Spirits II 987   1:31.2  461.6 
112James HowardmSub 7 II 985   1:31.4  458.8 
113Mark HudsonMGARAGEATHLETE II 983   1:31.6  456.0 
114Kevinhorne44MFree Spirits II 982   1:31.6  454.6 
115Saro MicalizziMRowPro Rowers I 981   1:31.7  453.3 
116Dave McDonaldMThe Chain Pullers I 981   1:31.7  453.3 
117Nigel FarmerMForum Flyers II 981   1:31.7  453.3 
118Carl GranfeltmFitness Matters V 981   1:31.7  453.3 
119Rob Palk Sub 7MSub 7 VII 981   1:31.7  453.3 
120Stefan SchirilloMSub 7 VII 980   1:31.8  451.9 
121Jim BairdMIsenhurst Rowers II 980   1:31.8  451.9 
122Chuck McGeeMFirm Fitness I 980   1:31.8  451.9 
123Séamus ByrneMPaddy Power I 978   1:32.0  449.1 
124Roger Johansen FMMFitness Matters V 978   1:32.0  449.1 
125Stephen Perkins FMMFitness Matters V 977   1:32.1  447.7 
126Mac McNelisMSub 7 VIII 975   1:32.3  445.0 
127James ClarkeMFitness Matters VI 975   1:32.3  445.0 
128Laura TinglefGARAGEATHLETE I 975   1:32.3  445.0 
129Benita ClausenFSub 7 I 974   1:32.4  443.6 
130Keith BairdMIsenhurst Rowers II 972   1:32.6  440.9 
131Tony PlettMThe Chain Pullers I 971   1:32.7  439.5 
132Richard SteventonMSub 7 VIII 971   1:32.7  439.5 
133Allan HallbergMForum Flyers II 970   1:32.8  438.2 
134NZ - Levi PeetersMTe Waka Aotearoa III 968   1:33.0  435.5 
135Ian WilliamsMGee Crew I 967   1:33.1  434.1 
136Paul Timmons FFCmFirm Fitness I 967   1:33.1  434.1 
137Amie MacejkovicFGARAGEATHLETE II 966   1:33.2  432.8 
138Sean HearnmFirm Fitness I 965   1:33.3  431.4 
139Andy OsborneMIsenhurst Rowers III 965   1:33.3  431.4 
140John.StinermDiamonds I 965   1:33.3  431.4 
141Roger RogneMFitness Matters VI 965   1:33.3  431.4 
142Peterb FFMForum Flyers III 962   1:33.6  427.4 
143Jack SandersonMDiamonds I 962   1:33.6  427.4 
144SpidermacmFree Spirits II 962   1:33.6  427.4 
145Frank NoorlanderMForum Flyers III 962   1:33.6  427.4 
146Eric AugustMSub 7 VIII 961   1:33.7  426.1 
147Steve IsaacsonmSub 7 III 961   1:33.7  426.1 
148macrothskiMSki Erg I 961   1:33.7  426.1 
149Phil RaynerMIsenhurst Rowers III 958   1:33.9  422.1 
150Andy ColeMGee Crew II 958   1:33.9  422.1 
151FREELANCE MN AD LEONI MAUROMROWING CLUB MANTOVA I 958   1:33.9  422.1 
152Robert JonesMSub 7 IX 957   1:34.0  420.8 
153Paul MortonmSub 7 IV 957   1:34.0  420.8 
154Karis FrostFThe Delivery Room I 956   1:34.1  419.5 
155Jon SarcheMForum Flyers III 956   1:34.1  419.5 
156Kevin HillmanMEmpty the Tanks I 955   1:34.2  418.2 
157David GiggMRed Line Rowers II 955   1:34.2  418.2 
158Bezza RLRmRed Line Rowers II 955   1:34.2  418.2 
159Paul 'Chicky' ChickMFitness Matters VI 955   1:34.2  418.2 
160SpikemForum Flyers I 954   1:34.3  416.9 
161Terry TurnermDiamonds II 954   1:34.3  416.9 
162Ben Lloyd KingmGee Crew I 954   1:34.3  416.9 
163Dirk SundermannMSYC Rowing Crew I 954   1:34.3  416.9 
164Adam YalowichmFitness Matters VI 954   1:34.3  416.9 
165Jason McCormackMPaddy Power I 953   1:34.4  415.5 
166Scott RoyalMFirm Fitness I 952   1:34.5  414.2 
167Will HicksMIndependent I 951   1:34.6  412.9 
168FREELANCE MN NASI PIERGIORGIOmROWING CLUB MANTOVA I 951   1:34.6  412.9 
169Clare HigginsFFitness Matters I 951   1:34.6  412.9 
170Cy GwylltMSub 7 IX 950   1:34.7  411.6 
171James HicksMIndependent I 949   1:34.8  410.3 
172LeoD OConnormDiamonds II 949   1:34.8  410.3 
173Nick CarapietmIsenhurst Rowers I 949   1:34.8  410.3 
174Gregory CookmTeam Oarsome II 948   1:34.9  409.0 
175Roger Bjarm ForneboMRed Line Rowers II 947   1:35.0  407.7 
176Cap Marara NathanLMFIRT II 947   1:35.0  407.7 
177Steve WilkinMIndependent I 946   1:35.1  406.5 
178FREELANCE MN AD POLI DOMENICOMROWING CLUB MANTOVA I 945   1:35.2  405.2 
179Bill.SchmidtmTeam Oarsome II 943   1:35.4  402.6 
180Sarita Kristina HansenfSub 7 II 943   1:35.4  402.6 
181Karl Hoods TDRmThe Delivery Room II 941   1:35.6  400.0 
182Mike ForderMDiamonds II 941   1:35.6  400.0 
183Kevin LivesleyMThe Chain Pullers I 940   1:35.7  398.8 
184Jon P TaylormFree Spirits III 940   1:35.7  398.8 
185Heather K KentonfFirm Fitness I 940   1:35.7  398.8 
186Jon GoodallMMAD IV 939   1:35.8  397.5 
187Russell JonesMRed Line Rowers II 939   1:35.8  397.5 
188Richard WolfMForum Flyers IV 937   1:36.1  395.0 
189NZ - Eddy FanmTe Waka Aotearoa II 937   1:36.1  395.0 
190Giles Clarke (RLR)MRed Line Rowers III 936   1:36.2  393.7 
191Peter WeissMFree Spirits III 935   1:36.3  392.4 
192William Gooner HawkinsMC2TweetCrew I 935   1:36.3  392.4 
193Paul SandsMRed Line Rowers III 934   1:36.4  391.2 
194Martin KellyMSub 7 IX 934   1:36.4  391.2 
195Steve Mule TRM#TokyRow I 934   1:36.4  391.2 
196patrice CORNUTmFIRT II 932   1:36.6  388.7 
197Warren MatthewsMSub 7 X 930   1:36.8  386.2 
198Richard Potter FMMFitness Matters VII 930   1:36.8  386.2 
199James SlipetzMForum Flyers IV 929   1:36.9  384.9 
200_Gordon Ullah (c2tweet)mC2TweetCrew I 929   1:36.9  384.9 
201Will HaskellmForum Flyers II 929   1:36.9  384.9 
202Chris WhaleMForum Flyers IV 928   1:37.0  383.7 
203CrushyMFree Spirits III 928   1:37.0  383.7 
204NZ - Sara-Jayne Van AmeydeFTe Waka Aotearoa I 927   1:37.1  382.5 
205Nick DegnarsMFirm Fitness II 926   1:37.2  381.2 
206Mirella McGeeFSub 7 III 926   1:37.2  381.2 
207Elliot CM ThomasMForum Flyers V 924   1:37.4  378.8 
208M D MItchellMErg365 I 924   1:37.4  378.8 
209FREELANCE MN SALOMONI VALERIOMROWING CLUB MANTOVA I 924   1:37.4  378.8 
210Andy StreetmSub 7 V 922   1:37.6  376.3 
211Robert DykemIndependent I 921   1:37.7  375.1 
212Andy BurrowsMTeam Oarsome III 921   1:37.7  375.1 
213Rich InsleymThe Chain Pullers I 920   1:37.8  373.9 
214LindsayhMForum Flyers V 919   1:37.9  372.6 
215Charlotte PiggFMAD II 919   1:37.9  372.6 
216Samuel ElsdonmForum Flyers III 919   1:37.9  372.6 
217LowyMMAD IV 918   1:38.0  371.4 
218Steve MotznyMAge Without Limits I 918   1:38.0  371.4 
219George Bingham (RLR LWT)mRed Line Rowers III 917   1:38.1  370.2 
220Luther JonesMDiamonds II 917   1:38.1  370.2 
221Angus WoodhamsMIsenhurst Rowers III 916   1:38.3  369.0 
222Jim McCarthyMDiamonds III 915   1:38.4  367.8 
223Janette LoweFTeam Oarsome I 915   1:38.4  367.8 
224Guy LarochemDiamonds III 914   1:38.5  366.6 
225Glyn LloydmSub 7 VI 914   1:38.5  366.6 
226Larry D'AndreaMDiamonds III 913   1:38.6  365.4 
227Hanna NeugebauerFFitness Matters II 911   1:38.8  363.0 
228IainmFree Spirits III 911   1:38.8  363.0 
229Chris NewberrymFree Spirits IV 911   1:38.8  363.0 
230LauraH21 GhiòfThe Italian Team I 910   1:38.9  361.8 
231Robert HenmanMDiamonds III 909   1:39.0  360.6 
232Marc VoorheesmForum Flyers IV 908   1:39.1  359.4 
233Mark WilliamsMFirm Fitness II 906   1:39.3  357.0 
234Eich PeterMDiamonds IV 905   1:39.4  355.9 
235Mike WinnMDiamonds IV 904   1:39.6  354.7 
236AMNW Ian NorthcottMMercian Nordic Walking I 903   1:39.7  353.5 
237Allen HmFree Spirits IV 903   1:39.7  353.5 
238Gary SmithmIsenhurst Rowers II 903   1:39.7  353.5 
239Bill WakeleymRowPro Rowers I 902   1:39.8  352.3 
240David PlumbmFree Spirits IV 901   1:39.9  351.2 
241David KeckMFirm Fitness II 901   1:39.9  351.2 
242Andy FlewittMGee Crew II 901   1:39.9  351.2 
243Anton GazalmSub 7 VII 901   1:39.9  351.2 
244CHAUVEAU SébastienmFIRT II 900   1:40.0  350.0 
245Jerry RothmDiamonds IV 899   1:40.1  348.8 
246Kate Bruck FMfFitness Matters III 897   1:40.3  346.5 
247Deidre WFThe Delivery Room II 897   1:40.3  346.5 
248Jan HruskamRed Line Rowers III 896   1:40.4  345.4 
249John StampermSub 7 VIII 896   1:40.4  345.4 
250Casey ClarkeMSub 7 X 894   1:40.7  343.0 
251Dan FarmerMForum Flyers V 894   1:40.7  343.0 
252AMNW Chris PMMercian Nordic Walking I 893   1:40.8  341.9 
253Mike PearsonmGee Crew II 893   1:40.8  341.9 
254Emily TierFIsenhurst Rowers I 893   1:40.8  341.9 
255Phillip ElsdonmForum Flyers V 890   1:41.1  338.5 
256Paul GouldMFree Spirits IV 890   1:41.1  338.5 
257NZ - Lisa BerrymanFTe Waka Aotearoa II 888   1:41.4  336.2 
258Sue ElleryFIsenhurst Rowers II 887   1:41.5  335.1 
259Wayne E. CalvertMDiamonds IV 886   1:41.6  333.9 
260Louise Barber1409fFitness Matters IV 886   1:41.6  333.9 
261Lenny CottrellmFirm Fitness II 885   1:41.7  332.8 
262Henrietta HögbergFTeam Oarsome II 885   1:41.7  332.8 
263David R. HerzMAge Without Limits I 885   1:41.7  332.8 
264Roy TullerMDiamonds V 884   1:41.8  331.7 
265Davidski BarberskiMSki Erg I 883   1:41.9  330.5 
266Eddie McSharryMSub 7 X 883   1:41.9  330.5 
267MBrownjohnmDiamonds V 883   1:41.9  330.5 
268FunkyrowerMGee Crew II 881   1:42.2  328.3 
269Jim EldermFirm Fitness III 880   1:42.3  327.2 
270Natalie TrebilcockFGee Crew I 879   1:42.4  326.1 
271Stacey DenyerFTeam Oarsome III 879   1:42.4  326.1 
272Amie Macejkovic SkiErgFSki Erg I 879   1:42.4  326.1 
273Wojciech WaliszewskiMFree Spirits V 878   1:42.5  325.0 
274Sabine PatissierFFIRT I 877   1:42.6  323.8 
275Neil LittlemDiamonds V 876   1:42.7  322.7 
276Jules Bailey (2)FTeam Oarsome III 876   1:42.7  322.7 
277Michelle SpatesFIsenhurst Rowers III 876   1:42.7  322.7 
278Tim MontogomeryMDiamonds V 876   1:42.7  322.7 
279Sheena PatelFForum Flyers I 876   1:42.7  322.7 
280AMNWPatTFMercian Nordic Walking I 873   1:43.1  319.4 
281Lesley DuffyFFree Spirits I 872   1:43.2  318.3 
282Claire KeaveneyFIsenhurst Rowers IV 872   1:43.2  318.3 
283Joe A KeatingmPaddy Power I 871   1:43.3  317.2 
284Gary JamesMFitness Matters VII 871   1:43.3  317.2 
285Richard SkisomMSki Erg I 871   1:43.3  317.2 
286Tom BegleyMFree Spirits V 870   1:43.4  316.2 
287Tom BlaylockmDiamonds VI 869   1:43.6  315.1 
288Suzanne WittenbrinkfForum Flyers II 869   1:43.6  315.1 
289Arlene Wade (TO)fTeam Oarsome III 869   1:43.6  315.1 
290Erica GranucciFSub 7 IV 869   1:43.6  315.1 
291james hootonMDiamonds VI 868   1:43.7  314.0 
292Michael BMPaddy Power I 867   1:43.8  312.9 
293Gary McDonoughMDiamonds VI 866   1:43.9  311.8 
294Peter HawneyMGee Crew III 865   1:44.0  310.7 
295Barbara AproFRed Line Rowers I 864   1:44.2  309.7 
296Tamara PelletFSub 7 V 864   1:44.2  309.7 
297Tony LorrimermGee Crew III 863   1:44.3  308.6 
298Eve EvisonFGee Crew II 861   1:44.5  306.4 
299Rebecca TerryFForum Flyers III 861   1:44.5  306.4 
300FREELANCE MN GROSSO FRANCESCOMROWING CLUB MANTOVA II 858   1:44.9  303.3 
301Belinda TraceyFErgo Ergo Sum I 857   1:45.0  302.2 
302Matt NewmanmTeam Oarsome III 856   1:45.1  301.1 
303Barnsley BobMDiamonds VI 856   1:45.1  301.1 
304Caz JaszewskifESPRIT I 856   1:45.1  301.1 
305Harry HellammFitness Matters VII 855   1:45.3  300.1 
306Terry FFmForum Flyers VI 855   1:45.3  300.1 
307SLTSkimSki Erg I 855   1:45.3  300.1 
308Paivi TormaFDiamonds I 854   1:45.4  299.0 
309Rob Staveley-BrownMAge Without Limits I 853   1:45.5  298.0 
310Tracy Watkins RLRFRed Line Rowers II 852   1:45.6  296.9 
311Dave Moores (FF)MForum Flyers VI 852   1:45.6  296.9 
312AMNW Pauline DemelFMercian Nordic Walking I 850   1:45.9  294.8 
313Vitor VilarMAge Without Limits II 849   1:46.0  293.8 
314Ray LenMSub 7 XI 846   1:46.4  290.7 
315neil262mForum Flyers VI 844   1:46.6  288.6 
316Cecily_FisherfFirm Fitness II 843   1:46.8  287.6 
317Jill Hugessen.FDiamonds II 841   1:47.0  285.6 
318Petra HudsonFIsenhurst Rowers IV 841   1:47.0  285.6 
319Marie PageFRed Line Rowers III 840   1:47.1  284.6 
320Rick BaykomForum Flyers VI 837   1:47.5  281.5 
321Peta RobinsonFDiamonds III 835   1:47.8  279.5 
322fkoeneMFree Spirits V 835   1:47.8  279.5 
323Piers HeavyMIsenhurst Rowers IV 835   1:47.8  279.5 
324Julie DrakeFSub 7 VI 833   1:48.0  277.5 
325Eddie McSharry SkiErgMSki Erg II 832   1:48.2  276.5 
326Bill PalmerMForum Flyers VII 831   1:48.3  275.5 
327Philip PricemFree Spirits V 828   1:48.7  272.5 
328Leven McnaughtonFIsenhurst Rowers IV 828   1:48.7  272.5 
329Ingrid ErmlerFFree Spirits II 828   1:48.7  272.5 
330Richard WebstermDiamonds VII 825   1:49.1  269.6 
331Rod Chinn mMAD IV 821   1:49.6  265.7 
332Ruud JackelMRowPro Rowers I 815   1:50.4  259.9 
333Gail McTFThe Chain Pullers I 815   1:50.4  259.9 
334Jase FM HarrisMFitness Matters VII 812   1:50.8  257.0 
335Ana WfFree Spirits III 810   1:51.1  255.2 
336Stefan LedinmDiamonds VII 809   1:51.2  254.2 
337Rebecca ParrFC2TweetCrew I 809   1:51.2  254.2 
338Sabrina RasmussenfForum Flyers IV 808   1:51.4  253.3 
339ObeseManRowingM#TokyRow I 808   1:51.4  253.3 
340Zoe OsborneFIsenhurst Rowers V 807   1:51.5  252.3 
341Sue BaldockfIsenhurst Rowers III 807   1:51.5  252.3 
342Anne-Marie Riccardi-CowlingFSub 7 VII 807   1:51.5  252.3 
343Gaby BuseFFree Spirits IV 804   1:51.9  249.5 
344Susan YoungFSub 7 VIII 802   1:52.2  247.7 
345Mike Pettit TRM#TokyRow I 796   1:53.1  242.1 
346Jane O’ConnorFDiamonds IV 794   1:53.4  240.3 
347FREELANCE MN BARUFFALDI TIZIANAfROWING CLUB MANTOVA I 791   1:53.8  237.6 
348BurmanatorfThe Delivery Room III 790   1:53.9  236.7 
349Rita RisleyfGee Crew III 786   1:54.5  233.1 
350clareburrellfFree Spirits V 784   1:54.8  231.4 
351Glenn HortonMDiamonds VII 781   1:55.2  228.7 
352MuckolFDiamonds V 780   1:55.4  227.8 
353Ian NimmomGee Crew III 779   1:55.5  227.0 
354Samantha Doubtfire SkiFSki Erg II 778   1:55.7  226.1 
355Dan LynchMSub 7 XI 777   1:55.8  225.2 
356Mark KaehlerMDiamonds VII 776   1:56.0  224.3 
357Nigel SalsburymDiamonds VIII 775   1:56.1  223.5 
358Gel ForderfDiamonds VI 774   1:56.3  222.6 
359AMNW Mark TurnerMMercian Nordic Walking II 774   1:56.3  222.6 
360Graham WoodleyMForum Flyers VII 770   1:56.9  219.2 
361William PalmermForum Flyers VII 769   1:57.0  218.3 
362Mabel GiggfRed Line Rowers IV 767   1:57.3  216.6 
363Sarah GarrettFRed Line Rowers IV 767   1:57.3  216.6 
364AMNWEsmeBfMercian Nordic Walking I 766   1:57.5  215.8 
365Peter TullettmFree Spirits VI 762   1:58.1  212.4 
366Jack GilmoremForum Flyers VII 753   1:59.5  205.0 
367Kate LedinfDiamonds VII 751   1:59.8  203.4 
368beverley laundryfDiamonds VIII 751   1:59.8  203.4 
369Janice MacdonaldfDiamonds VIII 750   2:00.0  202.5 
370Janet LawtonFFree Spirits VI 747   2:00.5  200.1 
371AMNW LohitPmMercian Nordic Walking II 745   2:00.8  198.5 
372Rachel RileyFIsenhurst Rowers V 742   2:01.3  196.1 
373Fleur BlanfordfIsenhurst Rowers IV 742   2:01.3  196.1 
374Rose Metalli (LW)f#TokyRow I 741   2:01.5  195.3 
375Alex McGeefFirm Fitness III 740   2:01.6  194.6 
376Judy WilmotFDiamonds VIII 739   2:01.8  193.8 
377Susan D FFCFFirm Fitness III 737   2:02.1  192.2 
378fieFPaddy Power I 735   2:02.4  190.6 
379Chris ClarkefIsenhurst Rowers V 731   2:03.1  187.5 
380Nikki WrightFGee Crew III 721   2:04.8  179.9 
381Vanda HorejsovafTeam Oarsome IV 721   2:04.8  179.9 
382FREELANCE MN AD SPANO GIOVANNAFROWING CLUB MANTOVA II 717   2:05.5  177.0 
383David Lane UKMAge Without Limits II 716   2:05.7  176.2 
384Zoe WilkinfIndependent I 713   2:06.2  174.0 
385Sue MatherfDiamonds VIII 708   2:07.1  170.4 
386Anna Rae GreenFForum Flyers V 704   2:07.8  167.5 
387AMNWSusanRichardsFMercian Nordic Walking II 703   2:08.0  166.8 
388Siobhan AherneFDiamonds IX 702   2:08.2  166.1 
389Roger BurrellmFree Spirits VI 700   2:08.6  164.7 
390Heather PowellfSub 7 IX 699   2:08.8  164.0 
391Melissa Wieser TRF#TokyRow I 679   2:12.5  150.3 
392Sue McCormickfDiamonds IX 676   2:13.1  148.3 
393Rowena SchmidtFTeam Oarsome IV 672   2:13.9  145.7 
394AMNW Carol GoodefMercian Nordic Walking II 667   2:14.9  142.5 
395Sandra ChapmanfDiamonds IX 663   2:15.7  139.9 
396Gaynor JohnsonFRed Line Rowers IV 634   2:22.0  122.4 
397Linda VoorheesfForum Flyers VI 625   2:24.0  117.2 
398AMNWAnnMasonfMercian Nordic Walking II 616   2:26.1  112.2 
399mjpermuthfAge Without Limits I 597   2:30.8  102.2 
400Lisa Watkins RLRfRed Line Rowers IV 592   2:32.0  99.6 
401Ludham GPMRed Line Rowers IV 525   2:51.4  69.5 
402Jessica MurrayFForum Flyers VII 472   3:10.7  50.5 
1
64 pts
MAD I 1106m
Olli Zeidler (H)
Jack Trimble (H)
Big Phil (H)
Tim Male (L)
Bianca Piloseno MAD (F)
2
63 pts
Sub 7 I 1087.4m
Isaiah Harrison (H)
Andrew Morley (H)
Ben Jago (H)
Bergur Jensen (L)
Benita Clausen (F)
3
62 pts
GARAGEATHLETE I 1072.4m
Jason Marshall (H)
Chris Glasgow (H)
Justin Farina (H)
Yannick Herat (L)
Laura Tingle (F)
4
61 pts
Fitness Matters I 1065.8m
Adam Jones FM (H)
Joshua Flood FM (H)
Loic Shalbetter (H)
Justin Nickel FM (L)
Clare Higgins (F)
5
60 pts
MAD II 1061.2m
Chris Scott (H)
Roy Jones (H)
Freddie H hwt (H)
Bradley Perry french (L)
Charlotte Pigg (F)
6
59 pts
The Delivery Room I 1045m
Ian Gallagher TDR (H)
Nathaniel Wright TDR (H)
Gaunty TDR (H)
Alex Winser TDR (L)
Karis Frost (F)
7
58 pts
Sub 7 II 1039.8m
Lewin2 (H)
Dylan Dragswiek (H)
Terje Kydland (2) (H)
James Howard (L)
Sarita Kristina Hansen (F)
8
57 pts
Te Waka Aotearoa I 1033.8m
NZ - Andy Tomlinson (H)
NZ - Fifita (H)
Jase K (H)
NZ - Alex Nicholson (L)
NZ - Sara-Jayne Van Ameyde (F)
9
56 pts
Team Oarsome I 1017.8m
Keith Thompson (H)
Dave Chmilowskyj (H)
Carl A Raisen (H)
Craig Mumby (L)
Janette Lowe (F)
10
55 pts
Sub 7 III 1016.8m
Ian Wilde (H)
Rob Phillips (H)
Martin Still (H)
Steve Isaacson (L)
Mirella McGee (F)
11
54 pts
Fitness Matters II 1006.2m
Michael Richmond (H)
BlanksbyFM (H)
tony walpole (H)
Simon Amery FM (L)
Hanna Neugebauer (F)
12
53 pts
Fitness Matters III 994.8m
Paul Nuttall (H)
Stuart Kolbe (H)
Matthew Godwin FM (H)
Alastair Peake FM (L)
Kate Bruck FM (F)
13
52 pts
Sub 7 IV 989.2m
Jake Luce (H)
Jorn Gunnar Kleven (H)
Rich Dixon (H)
Paul Morton (L)
Erica Granucci (F)
14
51 pts
The Delivery Room II 987.4m
IDR TDW (H)
Richard SA (H)
Tony Maddocks (H)
Karl Hoods TDR (L)
Deidre W (F)
15
50 pts
Forum Flyers I 985.2m
macroth (H)
rtbrouwer (H)
Martin FF (H)
Spike (L)
Sheena Patel (F)
16
49 pts
Isenhurst Rowers I 985m
Haig McNaughton (H)
Mike Doherty (H)
Tim Evans (H)
Nick Carapiet (L)
Emily Tier (F)
17
48 pts
Red Line Rowers I 983.4m
Philip Hardy (H)
Rowland Hills (RLR) (H)
Sam Willetts (H)
Keith Darby (L)
Barbara Apro (F)
18
47 pts
FIRT I 981.8m
Sanjuan aip-perpignan (H)
HC (1) (H)
Vgueret (H)
Bertrand (L)
Sabine Patissier (F)
19
46 pts
Fitness Matters IV 980m
Josh Skversky FM (H)
Morten Haugseng (H)
John Steventon HWT FM (H)
B McAuley (L)
Louise Barber1409 (F)
20
45 pts
Free Spirits I 977.8m
Matthew Leonard (H)
Mike Channin (FS) (H)
Joe Lohman (H)
Claudius (L)
Lesley Duffy (F)
21
44 pts
Te Waka Aotearoa II 974m
NZ - Ross Smith (H)
NZ - Leon Mallard (H)
NZ - Andy Pita (H)
NZ - Eddy Fan (L)
NZ - Lisa Berryman (F)
22
43 pts
Sub 7 V 971.8m
Jeroen Pasman (H)
Matt Eades (H)
Alan Denby (H)
Andy Street (L)
Tamara Pellet (F)
23
42 pts
Gee Crew I 969.8m
Harbour Rat (H)
Andy Parkes (H)
Ian Williams (H)
Ben Lloyd King (L)
Natalie Trebilcock (F)
24
41 pts
Diamonds I 966.4m
William.Esterhuizen (H)
Len Osborn (H)
Jack Sanderson (H)
John.Stiner (L)
Paivi Torma (F)
25
40 pts
Firm Fitness I 960.8m
Chuck McGee (H)
Scott Royal (H)
Paul Timmons FFC (L)
Sean Hearn (L)
Heather K Kenton (F)
26
39 pts
Sub 7 VI 957m
John Walsh (H)
Kevin Carter (H)
Mike Pearce (MPx) (H)
Glyn Lloyd (L)
Julie Drake (F)
27
38 pts
Team Oarsome II 956.2m
Peter Clowes (H)
Martin leach (H)
Gregory Cook (L)
Bill.Schmidt (L)
Henrietta Högberg (F)
28
37 pts
Free Spirits II 949.2m
Steve Smith (H)
danfennell (H)
Kevinhorne44 (H)
Spidermac (L)
Ingrid Ermler (F)
29
36 pts
Forum Flyers II 948m
Steve Ockerby (H)
Nigel Farmer (H)
Allan Hallberg (H)
Will Haskell (L)
Suzanne Wittenbrink (F)
30
35 pts
Isenhurst Rowers II 946m
Graham French (H)
Jim Baird (H)
Keith Baird (H)
Gary Smith (L)
Sue Ellery (F)
31
34 pts
Sub 7 VII 934.4m
Glynn Powell (H)
Rob Palk Sub 7 (H)
Stefan Schirillo (H)
Anton Gazal (L)
Anne-Marie Riccardi-Cowling (F)
32
33 pts
Forum Flyers III 932m
Peterb FF (H)
Frank Noorlander (H)
Jon Sarche (H)
Samuel Elsdon (L)
Rebecca Terry (F)
33
32 pts
Red Line Rowers II 929.6m
David Gigg (H)
Roger Bjarm Fornebo (H)
Russell Jones (H)
Bezza RLR (L)
Tracy Watkins RLR (F)
34
31 pts
The Chain Pullers I 925.4m
Dave McDonald (H)
Tony Plett (H)
Kevin Livesley (H)
Rich Insley (L)
Gail McT (F)
35
30 pts
Sub 7 VIII 921m
Mac McNelis (H)
Richard Steventon (H)
Eric August (H)
John Stamper (L)
Susan Young (F)
36
29 pts
Diamonds II 920.4m
Mike Forder (H)
Luther Jones (H)
Terry Turner (L)
LeoD OConnor (L)
Jill Hugessen. (F)
37
28 pts
ROWING CLUB MANTOVA I 913.8m
FREELANCE MN AD LEONI MAURO (H)
FREELANCE MN AD POLI DOMENICO (H)
FREELANCE MN SALOMONI VALERIO (H)
FREELANCE MN NASI PIERGIORGIO (L)
FREELANCE MN BARUFFALDI TIZIANA (F)
38
27 pts
Free Spirits III 904.8m
Peter Weiss (H)
Crushy (H)
Jon P Taylor (L)
Iain (L)
Ana W (F)
39
26 pts
Red Line Rowers III 904.6m
Giles Clarke (RLR) (H)
Paul Sands (H)
George Bingham (RLR LWT) (L)
Jan Hruska (L)
Marie Page (F)
40
25 pts
Isenhurst Rowers III 904.4m
Andy Osborne (H)
Phil Rayner (H)
Angus Woodhams (H)
Sue Baldock (L)
Michelle Spates (F)
41
24 pts
Forum Flyers IV 902m
Richard Wolf (H)
James Slipetz (H)
Chris Whale (H)
Marc Voorhees (L)
Sabrina Rasmussen (F)
42
23 pts
Gee Crew II 898.8m
Andy Cole (H)
Andy Flewitt (H)
Funkyrower (H)
Mike Pearson (L)
Eve Evison (F)
43
22 pts
Diamonds III 897.2m
Jim McCarthy (H)
Larry D'Andrea (H)
Robert Henman (H)
Guy Laroche (L)
Peta Robinson (F)
44
21 pts
Independent I 896m
Will Hicks (H)
James Hicks (H)
Steve Wilkin (H)
Robert Dyke (L)
Zoe Wilkin (F)
45
20 pts
Firm Fitness II 892.2m
Nick Degnars (H)
Mark Williams (H)
David Keck (H)
Lenny Cottrell (L)
Cecily_Fisher (F)
46
19 pts
Ski Erg I 889.8m
macrothski (H)
Davidski Barberski (H)
Richard Skisom (H)
SLTSki (L)
Amie Macejkovic SkiErg (F)
47
18 pts
Free Spirits IV 881.8m
Paul Gould (H)
Chris Newberry (L)
Allen H (L)
David Plumb (L)
Gaby Buse (F)
48
17 pts
Paddy Power I 880.8m
Séamus Byrne (H)
Jason McCormack (H)
Michael B (H)
Joe A Keating (L)
fie (F)
49
16 pts
Team Oarsome III 880.2m
Andy Burrows (H)
Matt Newman (L)
Arlene Wade (TO) (L)
Stacey Denyer (F)
Jules Bailey (2) (F)
50
15 pts
Diamonds IV 877.6m
Eich Peter (H)
Mike Winn (H)
Wayne E. Calvert (H)
Jerry Roth (L)
Jane O’Connor (F)
51
14 pts
Forum Flyers V 866.2m
Elliot CM Thomas (H)
Lindsayh (H)
Dan Farmer (H)
Phillip Elsdon (L)
Anna Rae Green (F)
52
13 pts
Diamonds V 859.8m
Roy Tuller (H)
Tim Montogomery (H)
MBrownjohn (L)
Neil Little (L)
Muckol (F)
53
12 pts
Mercian Nordic Walking I 857m
AMNW Ian Northcott (H)
AMNW Chris P (H)
AMNWEsmeB (L)
AMNWPatT (F)
AMNW Pauline Demel (F)
54
11 pts
Diamonds VI 846.6m
james hooton (H)
Gary McDonough (H)
Barnsley Bob (H)
Tom Blaylock (L)
Gel Forder (F)
55
10 pts
Free Spirits V 839m
Wojciech Waliszewski (H)
Tom Begley (H)
fkoene (H)
Philip Price (L)
clareburrell (F)
56
9 pts
Isenhurst Rowers IV 823.6m
Piers Heavy (H)
Fleur Blanford (L)
Claire Keaveney (F)
Petra Hudson (F)
Leven Mcnaughton (F)
57
8 pts
Gee Crew III 802.8m
Peter Hawney (H)
Tony Lorrimer (L)
Ian Nimmo (L)
Rita Risley (F)
Nikki Wright (F)
58
7 pts
Forum Flyers VI 802.6m
Dave Moores (FF) (H)
Terry FF (L)
neil262 (L)
Rick Bayko (L)
Linda Voorhees (F)
59
6 pts
#TokyRow I 791.6m
Steve Mule TR (H)
ObeseManRowing (H)
Mike Pettit TR (H)
Rose Metalli (LW) (L)
Melissa Wieser TR (F)
60
5 pts
Diamonds VII 788.4m
Glenn Horton (H)
Mark Kaehler (H)
Richard Webster (L)
Stefan Ledin (L)
Kate Ledin (F)
61
4 pts
Diamonds VIII 744.6m
Nigel Salsbury (L)
Janice Macdonald (L)
Sue Mather (L)
beverley laundry (F)
Judy Wilmot (F)
62
3 pts
Forum Flyers VII 719m
Bill Palmer (H)
Graham Woodley (H)
William Palmer (L)
Jack Gilmore (L)
Jessica Murray (F)
63
2 pts
Mercian Nordic Walking II 701m
AMNW Mark Turner (H)
AMNW LohitP (L)
AMNW Carol Goode (L)
AMNWAnnMason (L)
AMNWSusanRichards (F)
64
1 pt
Red Line Rowers IV 657m
Ludham GP (H)
Mabel Gigg (L)
Lisa Watkins RLR (L)
Sarah Garrett (F)
Gaynor Johnson (F)
65Germania I1078.6m
Tim Grohmann (H)
Tobias Stöhr (H)
Damien BLOUDEAU (L)
 
66MAD III1034.2m
Patrick Hall (H)
Pete Marston (H)
Simon Handley (H)
Richard Wilder (L)
67 Once We Were Tribesports I992m
StJohn Ford (H)
 
68Fitness Matters V984m
Tako Lootsma (H)
Roger Johansen FM (H)
Stephen Perkins FM (H)
Carl Granfelt (L)
69GARAGEATHLETE II974.5m
Mark Hudson (H)
Amie Macejkovic (F)
 
70Te Waka Aotearoa III968m
NZ - Levi Peeters (H)
 
71Fitness Matters VI962.2m
James Clarke (H)
Roger Rogne (H)
Paul 'Chicky' Chick (H)
Adam Yalowich (L)
72The Delivery Room III959.5m
Matthew James Fuller (H)
ianski (H)
Sjfrost1001 (H)
Burmanator (L)
73Ergo Ergo Sum I957.6m
Jon Cole (H)
Dingeman Wiertz (L)
Belinda Tracey (F)
 
74Empty the Tanks I955m
Kevin Hillman (H)
 
75SYC Rowing Crew I954m
Dirk Sundermann (H)
 
76ESPRIT I948.5m
ESPRIT Joe Lustig (H)
Caz Jaszewski (L)
 
77FIRT II926.3m
Cap Marara NathanL (H)
patrice CORNUT (L)
CHAUVEAU Sébastien (L)
 
78Erg365 I924m
M D MItchell (H)
 
79C2TweetCrew I920m
Kay Bieri (H)
William Gooner Hawkins (H)
_Gordon Ullah (c2tweet) (L)
Rebecca Parr (F)
80The Italian Team I910m
LauraH21 Ghiò (L)
 
81Sub 7 X902.3m
Warren Matthews (H)
Casey Clarke (H)
Eddie McSharry (H)
 
82RowPro Rowers I899.3m
Saro Micalizzi (H)
Ruud Jackel (H)
Bill Wakeley (L)
 
83MAD IV892.6m
Jon Goodall (H)
Lowy (H)
Rod Chinn (L)
 
84Sub 7 IX885m
Robert Jones (H)
Cy Gwyllt (H)
Martin Kelly (H)
Heather Powell (L)
85Fitness Matters VII867m
Richard Potter FM (H)
Gary James (H)
Jase FM Harris (H)
Harry Hellam (L)
86Age Without Limits I813.2m
Steve Motzny (H)
David R. Herz (H)
Rob Staveley-Brown (H)
mjpermuth (L)
87Sub 7 XI811.5m
Ray Len (H)
Dan Lynch (H)
 
88Ski Erg II805m
Eddie McSharry SkiErg (H)
Samantha Doubtfire Ski (F)
 
89ROWING CLUB MANTOVA II787.5m
FREELANCE MN GROSSO FRANCESCO (H)
FREELANCE MN AD SPANO GIOVANNA (F)
 
90Firm Fitness III785.6m
Jim Elder (L)
Alex McGee (F)
Susan D FFC (F)
 
91Age Without Limits II782.5m
Vitor Vilar (H)
David Lane UK (H)
 
92Isenhurst Rowers V760m
Chris Clarke (L)
Zoe Osborne (F)
Rachel Riley (F)
 
93Free Spirits VI736.3m
Peter Tullett (L)
Roger Burrell (L)
Janet Lawton (F)
 
94Team Oarsome IV696.5m
Vanda Horejsova (L)
Rowena Schmidt (F)
 
95Diamonds IX680.3m
Sue McCormick (L)
Sandra Chapman (L)
Siobhan Aherne (F)
 

The Cross-Team Challenge is not supported or endorsed by Concept 2.
Site written by Daren Chandisingh. Please post any problems on the UK Concept 2 forum.

Valid XHTML 1.0 Transitional